Snohomish, WA (98290)

5:52 AM PDT on August 27, 2014 (GMT -0700)
Green View Ridge | Change Station
CLOSE
Current Station
Personal Weather Station
Location: Lake Stevens, WA
Elevation: 276 ft
Nearby Weather Stations

Elev 276 ft 47.97 °N, 122.07 °W | Updated 5 minutes ago

Clear
Clear
57.5 °F
Feels Like 57.5 °F
N
0.0
Wind Variable Wind from West
Gusts 0.0 mph

Today
High -- | Low -- °F
--% Chance of Precip.
Yesterday
High -- | Low -- °F
Precip. -- in
6:19 AM 7:58 PM
Waxing Crescent, 3% visible
Pressure 30.02 in
Visibility 10.0 miles
Clouds Clear
Dew Point 56 °F
Humidity 93%
Rainfall 0.00 in
Snow Depth 0 in
UV 0.0 out of 12
Pollen 3.80 out of 12
PM2.5 Moderate
Flu Activity Not available.
METAR KPAE 271153Z AUTO 05004KT 10SM CLR 18/14 A3003 RMK AO2 SLP164 T01830139 10189 20172 53001

More Conditions Fewer Conditions

Pressure 30.02 in
Visibility 10.0 miles
Clouds Clear
Dew Point 56 °F
Humidity 93%
Rainfall 0.00 in
Snow Depth 0 in
UV 0.0 out of 12
Pollen 3.80 out of 12
PM2.5 Moderate
Flu Activity Not available.
METAR KPAE 271153Z AUTO 05004KT 10SM CLR 18/14 A3003 RMK AO2 SLP164 T01830139 10189 20172 53001

More Conditions Fewer Conditions

10-Day Weather Forecast

Almanac

Astronomy

Aug. 27, 2014 Rise Set
Actual Time 6:19 AM PDT 7:58 PM PDT
Civil Twilight 5:46 AM PDT 8:31 PM PDT
Nautical Twilight 5:06 AM PDT 9:10 PM PDT
Astronomical Twilight 4:23 AM PDT 9:54 PM PDT
Moon 8:33 AM PDT 8:39 PM PDT
Length of Visible Light 14h 44m
Length of Day
13h 39m
Tomorrow will be 3m 19s shorter.
Waxing Crescent, 3% of the Moon is Illuminated
Today
Waxing Crescent
Sep 2
First Quarter
Sep 8
Full
Sep 15
Last Quarter
Sep 24
New

Today's Extremes

State Highs State Lows

Community

WunderPhotos

Upload Photos

1,747,676 photos uploaded!

Nearby

Air Quality

  Air Quality AQ Index Pollutant
Yesterday Moderate
PM2.5
Yesterday Good
OZONE
Current Moderate
PM2.5
Wednesday Good
OZONE
Wednesday Good
PM2.5
Thursday Good
OZONE
Thursday Good
PM2.5
Friday Good
OZONE
Friday Good
PM2.5
Saturday Good
OZONE
Saturday Good
PM2.5

Snow Depth

Station Depth Elevation
Alpine Meadows 0 in 3500 ft
Stevens Pass 0 in 4070 ft
Olallie Meadows 0 in 3700 ft
Mount Crag 0 in 4050 ft
Dungeness 0 in 4100 ft

Earthquake Activity

City Distance Mag. Time & Date
No recent earthquake activity has been reported nearby.
Minimum magnitude displayed is 2.5.

Coastal Water Temperatures

Place Temperature
Port Townsend, WA 53.1 °F
Seattle, WA 55.9 °F
Friday Harbor, WA 53.1 °F
Tacoma, WA 55.9 °F

Nearby Weather Stations